sensor_id;sensor_type;location;lat;lon;timestamp;temperature;humidity
29255;DHT22;16277;48.890;2.306;2022-07-10T00:01:28;23.80;67.00
29255;DHT22;16277;48.890;2.306;2022-07-10T00:16:32;23.60;66.90
29255;DHT22;16277;48.890;2.306;2022-07-10T00:31:38;23.10;68.80
29255;DHT22;16277;48.890;2.306;2022-07-10T00:46:42;23.00;70.20
29255;DHT22;16277;48.890;2.306;2022-07-10T01:01:48;23.30;70.30
29255;DHT22;16277;48.890;2.306;2022-07-10T01:16:53;22.70;71.80
29255;DHT22;16277;48.890;2.306;2022-07-10T01:31:58;22.70;72.80
29255;DHT22;16277;48.890;2.306;2022-07-10T01:47:05;22.70;73.00
29255;DHT22;16277;48.890;2.306;2022-07-10T02:02:10;22.20;74.60
29255;DHT22;16277;48.890;2.306;2022-07-10T02:17:14;22.60;73.70
29255;DHT22;16277;48.890;2.306;2022-07-10T02:32:19;22.10;75.50
29255;DHT22;16277;48.890;2.306;2022-07-10T02:47:25;22.40;74.40
29255;DHT22;16277;48.890;2.306;2022-07-10T03:02:29;22.20;74.80
29255;DHT22;16277;48.890;2.306;2022-07-10T03:17:34;22.20;74.40
29255;DHT22;16277;48.890;2.306;2022-07-10T03:32:39;21.80;75.60
29255;DHT22;16277;48.890;2.306;2022-07-10T03:47:44;21.90;75.80
29255;DHT22;16277;48.890;2.306;2022-07-10T04:02:54;21.90;75.80
29255;DHT22;16277;48.890;2.306;2022-07-10T04:17:59;21.60;77.20
29255;DHT22;16277;48.890;2.306;2022-07-10T04:33:04;21.70;76.90
29255;DHT22;16277;48.890;2.306;2022-07-10T04:48:09;21.50;77.50
29255;DHT22;16277;48.890;2.306;2022-07-10T05:03:14;21.50;77.40
29255;DHT22;16277;48.890;2.306;2022-07-10T05:18:19;21.50;77.60
29255;DHT22;16277;48.890;2.306;2022-07-10T05:33:24;21.60;77.60
29255;DHT22;16277;48.890;2.306;2022-07-10T05:48:29;21.60;77.00
29255;DHT22;16277;48.890;2.306;2022-07-10T06:03:34;21.30;77.70
29255;DHT22;16277;48.890;2.306;2022-07-10T06:18:39;21.50;77.40
29255;DHT22;16277;48.890;2.306;2022-07-10T06:33:45;21.80;76.30
29255;DHT22;16277;48.890;2.306;2022-07-10T06:48:49;21.90;76.30
29255;DHT22;16277;48.890;2.306;2022-07-10T07:03:54;21.70;75.40
29255;DHT22;16277;48.890;2.306;2022-07-10T07:18:59;21.60;75.10
29255;DHT22;16277;48.890;2.306;2022-07-10T07:34:03;21.30;75.20
29255;DHT22;16277;48.890;2.306;2022-07-10T07:49:08;21.60;73.30
29255;DHT22;16277;48.890;2.306;2022-07-10T08:04:15;21.70;71.00
29255;DHT22;16277;48.890;2.306;2022-07-10T08:19:20;21.80;70.70
29255;DHT22;16277;48.890;2.306;2022-07-10T08:34:25;21.50;70.10
29255;DHT22;16277;48.890;2.306;2022-07-10T08:49:31;22.10;68.60
29255;DHT22;16277;48.890;2.306;2022-07-10T09:04:38;22.00;68.80
29255;DHT22;16277;48.890;2.306;2022-07-10T09:19:43;22.40;67.90
29255;DHT22;16277;48.890;2.306;2022-07-10T09:34:50;22.40;66.80
29255;DHT22;16277;48.890;2.306;2022-07-10T09:50:23;22.50;66.40
29255;DHT22;16277;48.890;2.306;2022-07-10T10:05:36;22.40;65.60
29255;DHT22;16277;48.890;2.306;2022-07-10T10:20:42;22.50;66.10
29255;DHT22;16277;48.890;2.306;2022-07-10T10:35:49;22.90;65.50
29255;DHT22;16277;48.890;2.306;2022-07-10T10:50:54;23.10;65.80
29255;DHT22;16277;48.890;2.306;2022-07-10T11:05:59;23.30;66.00
29255;DHT22;16277;48.890;2.306;2022-07-10T11:21:14;23.50;65.50
29255;DHT22;16277;48.890;2.306;2022-07-10T11:36:27;23.50;65.40
29255;DHT22;16277;48.890;2.306;2022-07-10T11:51:36;23.80;65.90
29255;DHT22;16277;48.890;2.306;2022-07-10T12:06:42;24.00;65.90
29255;DHT22;16277;48.890;2.306;2022-07-10T12:21:47;24.10;65.60
29255;DHT22;16277;48.890;2.306;2022-07-10T12:37:05;24.50;65.10
29255;DHT22;16277;48.890;2.306;2022-07-10T12:52:21;24.70;65.30
29255;DHT22;16277;48.890;2.306;2022-07-10T13:07:34;25.00;64.30
29255;DHT22;16277;48.890;2.306;2022-07-10T13:22:40;25.20;64.10
29255;DHT22;16277;48.890;2.306;2022-07-10T13:37:46;25.70;61.60
29255;DHT22;16277;48.890;2.306;2022-07-10T13:52:51;26.50;60.30
29255;DHT22;16277;48.890;2.306;2022-07-10T14:07:56;30.30;52.50
29255;DHT22;16277;48.890;2.306;2022-07-10T14:23:00;33.50;47.30
29255;DHT22;16277;48.890;2.306;2022-07-10T14:38:05;35.20;43.60
29255;DHT22;16277;48.890;2.306;2022-07-10T14:53:09;36.40;41.50
29255;DHT22;16277;48.890;2.306;2022-07-10T15:08:14;37.60;38.90
29255;DHT22;16277;48.890;2.306;2022-07-10T15:23:22;38.60;37.10
29255;DHT22;16277;48.890;2.306;2022-07-10T15:38:28;39.10;36.50
29255;DHT22;16277;48.890;2.306;2022-07-10T15:53:34;39.60;35.80
29255;DHT22;16277;48.890;2.306;2022-07-10T16:08:38;39.50;36.00
29255;DHT22;16277;48.890;2.306;2022-07-10T16:23:43;39.60;35.90
29255;DHT22;16277;48.890;2.306;2022-07-10T16:38:48;38.40;37.30
29255;DHT22;16277;48.890;2.306;2022-07-10T16:53:54;35.80;41.00
29255;DHT22;16277;48.890;2.306;2022-07-10T17:09:19;33.10;46.30
29255;DHT22;16277;48.890;2.306;2022-07-10T17:24:23;31.70;48.00
29255;DHT22;16277;48.890;2.306;2022-07-10T17:39:28;30.70;50.40
29255;DHT22;16277;48.890;2.306;2022-07-10T17:54:33;30.10;51.60
29255;DHT22;16277;48.890;2.306;2022-07-10T18:09:37;29.50;52.70
29255;DHT22;16277;48.890;2.306;2022-07-10T18:24:43;29.20;53.90
29255;DHT22;16277;48.890;2.306;2022-07-10T18:39:47;28.90;55.40
29255;DHT22;16277;48.890;2.306;2022-07-10T18:54:52;28.70;55.60
29255;DHT22;16277;48.890;2.306;2022-07-10T19:09:56;28.50;55.90
29255;DHT22;16277;48.890;2.306;2022-07-10T19:25:01;28.00;56.30
29255;DHT22;16277;48.890;2.306;2022-07-10T19:40:07;27.60;57.60
29255;DHT22;16277;48.890;2.306;2022-07-10T19:55:12;27.40;58.40
29255;DHT22;16277;48.890;2.306;2022-07-10T20:10:16;27.20;59.20
29255;DHT22;16277;48.890;2.306;2022-07-10T20:25:21;26.80;59.60
29255;DHT22;16277;48.890;2.306;2022-07-10T20:40:26;26.50;61.30
29255;DHT22;16277;48.890;2.306;2022-07-10T20:55:31;26.20;62.10
29255;DHT22;16277;48.890;2.306;2022-07-10T21:10:35;26.20;62.10
29255;DHT22;16277;48.890;2.306;2022-07-10T21:25:46;26.00;62.90
29255;DHT22;16277;48.890;2.306;2022-07-10T21:40:51;25.90;63.30
29255;DHT22;16277;48.890;2.306;2022-07-10T21:55:57;25.60;63.80
29255;DHT22;16277;48.890;2.306;2022-07-10T22:11:03;25.40;64.10
29255;DHT22;16277;48.890;2.306;2022-07-10T22:26:07;25.20;65.00
29255;DHT22;16277;48.890;2.306;2022-07-10T22:41:12;25.30;65.00
29255;DHT22;16277;48.890;2.306;2022-07-10T22:56:17;25.10;65.70
29255;DHT22;16277;48.890;2.306;2022-07-10T23:11:21;24.80;66.20
29255;DHT22;16277;48.890;2.306;2022-07-10T23:26:26;24.90;66.00
29255;DHT22;16277;48.890;2.306;2022-07-10T23:41:31;24.90;66.40
29255;DHT22;16277;48.890;2.306;2022-07-10T23:56:36;24.80;67.00
